Airport View

Enter AWOS ICAO identifier for current METAR.

ex. KFNL

KJYO 251630Z AUTO 03007KT 7SM SCT011 BKN016 OVC033 06/06 A3025 RMK AO2

25 Oct 2020 16:27

Frequency: 125.225

Phone: 703-777-3781

Other Area AWOS: KIAD - KGAI - KHEF - KFDK

TAF AMD KIAD 251503Z 2515/2618 07004KT 4SM -RA BR OVC015 FM251800 03005KT 4SM -SHRADZ OVC008 FM260100 03004KT 1 1/2SM -DZ BR OVC003 FM261200 VRB03KT 4SM BR OVC003 FM261700 00000KT P6SM BKN008